map of REX home
REX - Airport
Location
City:  Reynosa, Tamaulipas, México
Name:General Lucio Blanco International Airport
ICAO:MMRX
IATA:REX

Details
Type:Airport (Aerodrome, Airfield)
Use:Public/Civil, International (customs port of entry)
Latitude:26°00'32"N (26.008908)
Longitude:98°13'43"W (-98.228512)
Datum:other
Elevation:139 ft (42 m)
Variation:4.02°E (WMM2015 magnetic declination)
-0.11° annual change
Runways:1
Longest:6243 × 148 ft (1903 × 45 m), paved

Time
Time Zone:UTC-6 (DST-5)
Local Time:

Weather
METAR:MMRX 161643Z 12003KT 6SM SKC 19/06 A3022 RMK HZY

Related Locations
Nearby:
Farthest:RRG: 11197 mi / 18019 km
Plaine Corail [Sir Gaëtan Duval Airport (Plaine Corail Airport)], Rodrigues Island, MU

Find:

   beyond  
but within

Other Information
Maps:
NOTAMs:
Links:
Sources:

  
  • flag of México
  • flag of Tamaulipas
  

Sectional Chart

Flight Planning
at skyvector.com

Satellite Image

Google Maps Satellite view

 

Copyright © 2004-2018 Karl L. Swartz. All rights reserved.
The Great Circle Mapper name and logo are trademarks of the Great Circle Mapper.
All other trademarks mentioned herein belong to their respective owners.
Please see credits for attibutions and further copyright information.

  Follow gcmap on Facebook Follow gcmap on Twitter Follow gcmap on Google+ GCmap on LinkedIn

hCard Microformat

Geo Microformat